Aviation Digital Data Service (ADDS)

Output produced by METARs form (0638 UTC 24 March 2019)
found at http://www.aviationweather.gov/metar/data/
 
KAST 240555Z AUTO 14005KT 8SM OVC009 05/04 A3022 RMK AO2 SLP234 T00500044 10128 20044 51002
KAST 240548Z 2406/2506 00000KT P6SM OVC010 
     FM240900 00000KT 3SM BR SKC 
     FM241100 13002KT 3SM BR BKN008 
     FM241700 VRB03KT P6SM SCT200
       
KUAO 240553Z AUTO 00000KT 10SM SCT042 08/06 A3022 RMK AO2 SLP235 T00830056 10139 20083 51006
KUAO 240548Z 2406/2506 18004KT P6SM FEW040 BKN250 
     FM240800 00000KT P6SM FEW040 BKN250 
     FM241200 00000KT 2SM BR BKN004 
     FM241700 VRB03KT P6SM SCT007 
     FM242100 02006KT P6SM SCT250
       
KBKE 240553Z AUTO 29008KT 10SM -RA BKN018 OVC024 05/04 A3003 RMK AO2 SLP174 P0004 60017 T00500044 10078 20050 50002 $
KBKE 240520Z 2406/2506 VRB05KT P6SM -RA BKN015 OVC030 
     FM241000 23008KT 3SM -RASN OVC015 
     FM242100 23010KT P6SM VCSH BKN030 
     FM250100 VRB05KT P6SM SKC
       
KBDN 240635Z AUTO 00000KT 10SM CLR 02/M01 A3013 RMK AO2
KBDN 240522Z 2406/2506 32008KT P6SM BKN060 BKN120 
     FM241500 VRB05KT P6SM FEW090 
     FM241800 21005KT P6SM FEW100 SCT200
       
KBNO 240553Z AUTO 26010KT 10SM -RA OVC028 02/01 A3004 RMK AO2 UPB09E22 SLP180 P0000 60030 T00220006 10044 20017 51005
KBNO 240520Z 2406/2506 27012KT P6SM -RASN OVC025 
     FM241000 23008KT P6SM VCSH SCT015 BKN030 
     FM241800 20006KT P6SM SCT050 
     FM250200 VRB05KT P6SM SKC
       
KCVO 240637Z AUTO 31003KT 1SM BR FEW001 OVC048 06/06 A3025 RMK AO2 VIS 1/2V4 RVRNO
KEUG 240554Z 20004KT 10SM BKN035 OVC044 07/06 A3024 RMK AO2 SLP241 60001 T00720056 10100 20061 53006 $
KEUG 240548Z 2406/2506 19005KT P6SM BKN045 BKN070 
     FM240800 14003KT P6SM FEW070 
     FM241200 VRB03KT 2SM BR BKN004 
     FM241700 VRB03KT P6SM FEW006 
     FM242000 34005KT P6SM SCT250
       
K4S1 240635Z AUTO 24006KT 5SM BR CLR 06/05 A3024 RMK AO1
K3S8 240615Z AUTO 00000KT 10SM OVC050 05/04 A3025 RMK AO2
KHRI 240553Z AUTO 22009KT 10SM -RA OVC055 10/06 A3008 RMK AO2 SLP186 P0000 60000 T01000061 10161 20100 50001
K4S2 240635Z AUTO 00000KT 10SM CLR 08/03 A3016 RMK AO2
KGCD 240635Z AUTO 27013KT 3SM -SN OVC003 02/01 A3008 RMK AO2 P0001 T00150010
KLMT 240553Z AUTO 28004KT 10SM CLR M01/M03 A3015 RMK AO2 SLP221 T10111033 10056 21017 51009
KLMT 240529Z 2406/2506 00000KT P6SM SCT050 
     FM241800 17006KT P6SM BKN250
       
KLGD 240556Z AUTO 30012G17KT 10SM -RA OVC041 06/03 A3004 RMK AO2 SLP308 P0001 60008 T00560028 10067 20056 50000
KLKV 240553Z AUTO 16004KT 10SM FEW012 OVC055 00/M01 A3012 RMK AO2 SLP226 60014 T00001006 10017 20000 50007 FZRANO
KS33 240635Z AUTO 31005KT 10SM CLR 03/01 A3015 RMK AO2
KMMV 240635Z AUTO 26003KT 2 1/2SM BR SCT055 04/03 A3022 RMK AO2 T00390033
KMFR 240553Z AUTO 00000KT 5SM BR SCT050 04/03 A3023 RMK AO2 SLP242 60002 T00440033 10100 20044 51005
KMFR 240530Z 2406/2506 32004KT 4SM BR BKN100 
     FM240900 00000KT 2SM BR OVC005 
     FM241600 00000KT P6SM SCT005 BKN250 
     FM241800 13004KT P6SM SCT015 BKN250
       
KONP 240635Z AUTO 00000KT 7SM OVC014 05/05 A3027 RMK AO2
KONP 240548Z 2406/2506 00000KT 5SM BR SKC 
     FM240900 10005KT P6SM SKC
       
KOTH 240556Z AUTO 13007KT 10SM CLR 06/06 A3026 RMK AO2 SLP247 T00610056 10122 20056 50005
KOTH 240529Z 2406/2506 15004KT P6SM SCT040 
     FM241800 21005KT 6SM BR BKN250 
     FM250000 04005KT 6SM BR OVC250
       
KONO 240553Z AUTO 02006KT 10SM -RA BKN042 OVC049 09/08 A3001 RMK AO2 SLP162 P0003 60020 T00940078 10161 20094 50000 TSNO
KPDT 240553Z AUTO 19007KT 9SM -RA OVC041 07/06 A3008 RMK AO2 SLP184 P0003 60008 T00720061 10128 20072 50000
KPDT 240522Z 2406/2506 19008KT P6SM -RA SCT025 OVC040 
     FM241200 24005KT P6SM -RA BKN025 OVC035 
     FM241800 25008KT P6SM SCT030 BKN050 
     PROB30 2418/2424 P6SM -RA BKN050 
     FM250000 27006KT P6SM SCT050 
     FM250300 10004KT P6SM SKC
       
KPDX 240553Z 26003KT 10SM SCT055 BKN090 BKN200 10/06 A3021 RMK AO2 SLP230 T01000056 10156 20094 51006
KPDX 240548Z 2406/2506 30004KT P6SM SCT090 BKN250 
     FM240800 VRB02KT P6SM FEW040 BKN250 
     FM241400 VRB02KT P6SM BKN022 BKN250 
     FM241700 VRB03KT P6SM BKN250 
     FM242200 30005KT P6SM SKC
       
KHIO 240553Z AUTO 00000KT 10SM CLR 06/05 A3021 RMK AO2 SLP229 T00610050 10139 20061 51005
KHIO 240548Z 2406/2506 32004KT P6SM SCT250 
     FM240800 VRB02KT 4SM BR SCT250 
     FM241000 00000KT 2SM BR BKN003 
     FM241700 00000KT P6SM BKN008 
     FM242000 00000KT P6SM SCT250
       
KTTD 240553Z AUTO 26004KT 10SM BKN042 OVC050 11/06 A3020 RMK AO2 SLP227 60001 T01060061 10156 20106 51006
KTTD 240548Z 2406/2506 00000KT P6SM SCT045 OVC080 
     FM240900 00000KT P6SM FEW080 BKN250 
     FM241200 VRB03KT P6SM BKN018 
     FM241600 VRB03KT P6SM SCT250
       
KS39 240615Z AUTO 00000KT 10SM SCT037 BKN049 OVC055 04/02 A3012 RMK AO2
KRDM 240556Z AUTO 23003KT 10SM CLR 03/00 A3012 RMK AO2 SLP207 60000 T00330000 10100 20033 50002
KRDM 240522Z 2406/2506 29006KT P6SM BKN050 BKN090 
     FM241500 23005KT P6SM SCT080 
     FM241800 VRB03KT P6SM FEW100 SCT200
       
KRBG 240553Z AUTO 00000KT 10SM BKN046 07/06 A3024 RMK AO2 SLP243 60000 T00720056 10117 20072 51008
KRBG 240529Z 2406/2506 00000KT P6SM SCT030 BKN040 
     FM241000 00000KT P6SM SCT030 SCT250 
     FM241200 00000KT P6SM OVC005 
     FM241700 VRB03KT P6SM SCT250
       
KSLE 240556Z AUTO 16004KT 10SM FEW030 BKN038 07/05 A3021 RMK AO2 SLP232 T00720050 10128 20067 51004
KSLE 240548Z 2406/2506 20004KT P6SM FEW060 BKN250 
     FM241200 VRB03KT 1SM BR BKN002 
     FM241700 VRB03KT P6SM SCT004 
     FM242000 35006KT P6SM SCT250
       
KSPB 240553Z AUTO 00000KT 10SM FEW060 07/05 A3020 RMK AO2 SLP228 T00720050 10133 20067 51007
KDLS 240553Z AUTO 32012KT 10SM OVC120 11/04 A3012 RMK AO2 SLP200 T01110039 10156 20111 50002
KDLS 240522Z 2406/2506 29008KT P6SM VCSH SCT050 BKN120 
     FM241200 30008KT P6SM -RA BKN050 
     FM241800 30010KT P6SM SCT050 BKN250
       
KTMK 240615Z AUTO 00000KT 4SM BR SCT001 BKN006 OVC015 06/05 A3025 RMK AO2